CYYH

Taloyoak Airport

Taloyoak, Canada
METAR CYYH 192242Z 30017KT 15SM BKN027 04/M02 A2956 RMK SC6 SLP015
Observed Flight Rules
Aug-19 @ 22:42 UTC (27 minutes ago) Marginal Visual Flight Rules
Wind Visibility Clouds
300° at 17 knots 15 miles
  • Broken at 2,700' AGL
Temperatures Readings
Current 4°C / 39°F
Dewpoint -2°C / 28°F
Humidity 65%
Altimeter 29.56" Hg
Pressure 1001.5 hPa
Elevation 28
METAR CYYH 192242Z 30017KT 15SM BKN027 04/M02 A2956 RMK SC6 SLP015
Observed Flight Rules
Aug-19 @ 22:42 UTC
(27 minutes ago)
MVFR
Wind Visibility
300° at 17 knots 15 miles
Clouds
  • Broken at 2,700' AGL
Temperature Dewpoint
4°C / 39°F -2°C / 28°F
Humidity Altimeter Pressure
65% 29.56" Hg 1001.5 hPa